Time;durP1;ratioP1;P1;durP2;ratioP2;P2;SDS_P1;SDS_P2;PMS_P1;PMS_P2;Temp;Humidity;BMP_temperature;BMP_pressure;BME280_temperature;BME280_humidity;BME280_pressure;Samples;Min_cycle;Max_cycle;Signal;HPM_P1;HPM_P2
2022/12/11 00:01:25;;;;;;;30.67;11.80;;;-3.00;99.90;;;;;;21037477;28;20028;-78
2022/12/11 00:11:25;;;;;;;19.55;8.77;;;-3.40;99.90;;;;;;20926407;28;20123;-78
2022/12/11 00:21:26;;;;;;;23.25;8.60;;;-3.50;99.90;;;;;;21014171;28;20024;-79
2022/12/11 00:31:27;;;;;;;23.60;9.35;;;-3.60;99.90;;;;;;21047779;28;20084;-78
2022/12/11 00:41:28;;;;;;;25.95;11.20;;;-3.30;99.90;;;;;;21029050;28;20104;-78
2022/12/11 00:51:29;;;;;;;21.80;9.20;;;-3.20;99.90;;;;;;21042696;28;20032;-78
2022/12/11 01:01:30;;;;;;;31.27;10.45;;;-3.10;99.90;;;;;;21040896;28;20048;-78
2022/12/11 01:11:31;;;;;;;23.60;9.35;;;-2.80;99.90;;;;;;21009427;28;20029;-79
2022/12/11 01:21:31;;;;;;;21.35;8.25;;;-2.70;99.90;;;;;;21034018;28;20032;-79
2022/12/11 01:31:32;;;;;;;20.45;9.73;;;-2.60;99.90;;;;;;21035107;28;20032;-79
2022/12/11 01:41:33;;;;;;;22.90;9.77;;;-2.70;99.90;;;;;;21033523;28;20028;-79
2022/12/11 01:51:39;;;;;;;23.50;9.48;;;-3.00;99.90;;;;;;21084805;22;20078;-78
2022/12/11 02:01:54;;;;;;;24.15;9.85;;;-2.80;99.90;;;;;;21232778;27;20466;-80
2022/12/11 02:12:13;;;;;;;22.85;9.38;;;-2.90;99.90;;;;;;21310532;27;20034;-81
2022/12/11 02:22:41;;;;;;;22.75;10.10;;;-2.90;99.90;;;;;;21335701;27;20034;-80
2022/12/11 02:32:46;;;;;;;21.90;6.82;;;-2.80;99.90;;;;;;21348800;27;20054;-78
2022/12/11 02:42:48;;;;;;;15.30;6.55;;;-3.30;99.90;;;;;;21353565;27;20031;-80
2022/12/11 02:52:52;;;;;;;21.08;8.35;;;-3.30;99.90;;;;;;21332691;27;20361;-80
2022/12/11 03:02:53;;;;;;;13.60;5.45;;;-3.60;99.90;;;;;;21289678;27;20027;-79
2022/12/11 03:12:56;;;;;;;10.43;5.18;;;-3.80;99.90;;;;;;21260133;27;20098;-77
2022/12/11 03:23:11;;;;;;;11.75;4.82;;;-4.40;99.90;;;;;;21282424;27;20425;-79
2022/12/11 03:33:24;;;;;;;9.85;4.45;;;-4.50;99.90;;;;;;21313643;27;20037;-79
2022/12/11 03:43:27;;;;;;;11.70;4.47;;;-5.10;99.90;;;;;;21346738;27;20031;-80
2022/12/11 03:53:28;;;;;;;11.90;5.03;;;-5.20;99.90;;;;;;21345216;27;20034;-79
2022/12/11 04:03:28;;;;;;;10.20;4.80;;;-5.40;99.90;;;;;;21347181;27;20038;-80
2022/12/11 04:13:29;;;;;;;13.27;5.82;;;-5.70;99.90;;;;;;21325984;27;20034;-80
2022/12/11 04:33:49;;;;;;;11.60;5.57;;;-5.30;99.90;;;;;;21339214;27;20087;-79
2022/12/11 04:43:50;;;;;;;14.27;6.82;;;-5.10;99.90;;;;;;21322611;27;20121;-81
2022/12/11 04:53:53;;;;;;;18.15;7.85;;;-4.90;99.90;;;;;;21340148;27;20035;-80
2022/12/11 05:03:53;;;;;;;24.23;9.40;;;-4.60;99.90;;;;;;21265924;27;20079;-80
2022/12/11 05:13:54;;;;;;;32.53;11.20;;;-4.20;99.90;;;;;;21233092;27;20524;-80
2022/12/11 05:23:55;;;;;;;25.10;9.88;;;-4.10;99.90;;;;;;21232893;28;20035;-78
2022/12/11 05:33:56;;;;;;;29.13;11.23;;;-3.80;99.90;;;;;;21305210;27;20519;-81
2022/12/11 05:43:56;;;;;;;39.75;12.73;;;-3.80;99.90;;;;;;21335083;27;20034;-79
2022/12/11 05:53:57;;;;;;;38.25;13.40;;;-3.60;99.90;;;;;;21332743;27;20054;-80
2022/12/11 06:03:59;;;;;;;29.77;12.00;;;-3.60;99.90;;;;;;21266358;27;20121;-80
2022/12/11 06:14:01;;;;;;;29.52;11.45;;;-3.70;99.90;;;;;;21262595;27;20027;-79
2022/12/11 06:24:04;;;;;;;29.58;11.85;;;-3.80;99.90;;;;;;21242781;27;20473;-79
2022/12/11 06:34:05;;;;;;;28.60;11.52;;;-3.90;99.90;;;;;;21313974;27;20499;-78
2022/12/11 06:44:05;;;;;;;36.97;11.57;;;-3.90;99.90;;;;;;21346961;27;20504;-79
2022/12/11 06:54:06;;;;;;;22.65;9.68;;;-4.00;99.90;;;;;;21326425;27;20070;-80
2022/12/11 07:04:08;;;;;;;33.28;9.55;;;-4.00;99.90;;;;;;21344907;27;20034;-80
2022/12/11 07:14:09;;;;;;;24.65;9.85;;;-4.10;99.90;;;;;;21322793;27;20113;-79
2022/12/11 07:24:09;;;;;;;26.30;10.35;;;-4.20;99.90;;;;;;21341409;27;20030;-81
2022/12/11 07:34:12;;;;;;;27.33;12.13;;;-4.20;99.90;;;;;;21268449;27;20071;-78
2022/12/11 07:44:13;;;;;;;31.08;11.65;;;-4.20;99.90;;;;;;21237773;27;20067;-79
2022/12/11 07:54:15;;;;;;;28.77;10.38;;;-4.20;99.90;;;;;;21210557;22;20458;-79
2022/12/11 08:04:16;;;;;;;28.70;11.63;;;-4.20;99.90;;;;;;21154084;28;20083;-80
2022/12/11 08:14:18;;;;;;;29.98;10.38;;;-4.00;99.90;;;;;;21166731;28;20042;-80
2022/12/11 08:24:19;;;;;;;30.13;10.80;;;-3.80;99.90;;;;;;21147765;28;20391;-80
2022/12/11 08:34:20;;;;;;;27.38;10.82;;;-3.80;99.90;;;;;;21148284;28;20059;-77
2022/12/11 08:44:23;;;;;;;28.70;12.43;;;-3.60;99.90;;;;;;21150213;28;20047;-80
2022/12/11 08:54:24;;;;;;;25.63;11.63;;;-3.30;99.90;;;;;;21147582;28;20063;-79
2022/12/11 09:04:25;;;;;;;41.58;15.18;;;-1.90;99.90;;;;;;21164674;28;20065;-77
2022/12/11 09:14:26;;;;;;;33.65;12.35;;;-2.00;99.90;;;;;;21163975;28;20487;-79
2022/12/11 09:24:27;;;;;;;29.33;12.20;;;-1.40;99.90;;;;;;21165065;28;20176;-81
2022/12/11 09:34:28;;;;;;;27.90;13.15;;;-1.00;99.90;;;;;;21149189;28;20028;-79
2022/12/11 09:44:51;;;;;;;28.98;12.20;;;-1.10;99.90;;;;;;21081283;28;20054;-79
2022/12/11 09:54:57;;;;;;;31.65;12.45;;;-1.00;99.90;;;;;;21099486;28;20518;-79
2022/12/11 10:05:32;;;;;;;29.88;12.65;;;-1.00;99.90;;;;;;21159071;28;20028;-80
2022/12/11 10:15:36;;;;;;;31.38;12.65;;;-0.80;99.90;;;;;;21180815;28;20032;-80
2022/12/11 10:25:43;;;;;;;25.85;11.70;;;-0.70;99.90;;;;;;21162656;28;20027;-76
2022/12/11 10:36:06;;;;;;;31.95;13.52;;;-0.80;99.90;;;;;;21094513;28;20028;-80
2022/12/11 10:46:17;;;;;;;38.92;15.38;;;-0.30;99.90;;;;;;21091267;28;20036;-78
2022/12/11 10:56:29;;;;;;;25.02;12.43;;;0.20;99.90;;;;;;21080226;28;20035;-80
2022/12/11 11:06:30;;;;;;;24.45;12.20;;;0.50;99.90;;;;;;21174764;28;20027;-77
2022/12/11 11:16:33;;;;;;;25.27;12.02;;;0.50;99.90;;;;;;21174676;28;20040;-79
2022/12/11 11:26:34;;;;;;;35.85;15.35;;;-0.10;99.90;;;;;;21156987;28;20028;-77
2022/12/11 11:36:37;;;;;;;27.90;11.75;;;1.40;99.90;;;;;;21174850;28;20093;-80
2022/12/11 11:46:44;;;;;;;28.17;12.40;;;0.90;99.90;;;;;;21155038;28;20111;-80
2022/12/11 11:56:49;;;;;;;28.45;14.38;;;-0.30;99.90;;;;;;21144006;28;20036;-79
2022/12/11 12:07:05;;;;;;;24.77;13.10;;;-0.60;99.90;;;;;;21102937;28;20484;-80
2022/12/11 12:17:37;;;;;;;31.60;13.73;;;1.50;99.90;;;;;;21091613;28;20028;-80
2022/12/11 12:27:52;;;;;;;19.83;9.63;;;2.40;99.90;;;;;;21396330;27;20417;-78
2022/12/11 12:37:53;;;;;;;23.40;10.20;;;4.50;99.90;;;;;;21393958;27;20553;-79
2022/12/11 12:47:54;;;;;;;;;;;4.90;99.90;;;;;;21345841;27;20027;-79
2022/12/11 12:57:59;;;;;;;21.53;13.27;;;5.50;99.90;;;;;;21323749;27;19913;-83
2022/12/11 13:08:03;;;;;;;21.15;11.00;;;6.70;99.90;;;;;;21324293;27;20280;-84
2022/12/11 13:18:32;;;;;;;22.20;10.45;;;5.70;99.90;;;;;;21321131;27;20062;-79
2022/12/11 13:28:47;;;;;;;25.05;11.32;;;5.20;99.90;;;;;;21348521;27;20512;-82
2022/12/11 13:39:01;;;;;;;26.05;11.85;;;4.00;99.90;;;;;;21333282;27;20095;-82
2022/12/11 13:49:05;;;;;;;20.25;9.98;;;4.10;99.90;;;;;;21329512;27;20549;-83
2022/12/11 13:59:33;;;;;;;20.08;9.52;;;4.20;99.90;;;;;;21189591;22;20180;-80
2022/12/11 14:09:38;;;;;;;24.65;10.50;;;3.80;99.90;;;;;;21121202;28;20055;-80
2022/12/11 14:19:44;;;;;;;21.70;10.25;;;2.90;99.90;;;;;;21120852;28;20047;-80
2022/12/11 14:29:45;;;;;;;20.13;9.90;;;3.70;99.90;;;;;;21120557;28;20110;-79
2022/12/11 14:39:52;;;;;;;24.05;10.43;;;4.20;99.90;;;;;;21092585;28;20038;-81
2022/12/11 14:49:57;;;;;;;24.20;11.02;;;4.50;99.90;;;;;;21110408;28;20115;-81
2022/12/11 14:59:58;;;;;;;22.80;9.68;;;3.20;99.90;;;;;;21081846;28;20064;-80
2022/12/11 15:09:59;;;;;;;36.20;14.60;;;2.30;99.90;;;;;;21073260;28;20032;-80
2022/12/11 15:20:20;;;;;;;23.67;10.63;;;1.20;99.90;;;;;;21112589;28;20125;-80
2022/12/11 15:30:25;;;;;;;20.77;9.57;;;0.60;99.90;;;;;;21131493;28;20048;-79
2022/12/11 15:40:27;;;;;;;34.40;12.82;;;-0.10;99.90;;;;;;21086605;28;20035;-82
2022/12/11 15:50:29;;;;;;;26.60;11.65;;;-1.00;99.90;;;;;;21121503;28;20104;-81
2022/12/11 16:00:30;;;;;;;25.35;10.43;;;-1.10;99.90;;;;;;21112962;28;20028;-80
2022/12/11 16:10:30;;;;;;;21.85;11.13;;;-1.60;99.90;;;;;;21087352;28;20027;-79
2022/12/11 16:20:32;;;;;;;23.75;10.57;;;-2.20;99.90;;;;;;21100582;28;20036;-80
2022/12/11 16:30:34;;;;;;;24.65;10.27;;;-2.70;99.90;;;;;;21092193;28;20035;-80
2022/12/11 16:40:36;;;;;;;30.85;12.02;;;-2.80;99.90;;;;;;21085292;28;20099;-79
2022/12/11 16:50:38;;;;;;;28.17;11.35;;;-2.90;99.90;;;;;;21092238;28;20024;-81
2022/12/11 17:00:41;;;;;;;33.08;13.13;;;-2.90;99.90;;;;;;21081514;28;20024;-79
2022/12/11 17:10:42;;;;;;;28.75;12.27;;;-3.10;99.90;;;;;;21104768;28;20082;-80
2022/12/11 17:20:43;;;;;;;30.38;13.18;;;-3.30;99.90;;;;;;21113776;28;20398;-78
2022/12/11 17:30:44;;;;;;;40.85;17.88;;;-3.10;99.90;;;;;;21113363;28;20066;-78
2022/12/11 17:40:45;;;;;;;43.78;16.40;;;-3.00;99.90;;;;;;21067325;28;20427;-78
2022/12/11 17:50:46;;;;;;;36.22;14.02;;;-2.80;99.90;;;;;;21046421;28;20021;-80
2022/12/11 18:00:51;;;;;;;21.38;10.18;;;-2.80;99.90;;;;;;21037041;28;20114;-80
2022/12/11 18:10:53;;;;;;;23.40;10.82;;;-3.10;99.90;;;;;;21095313;28;20078;-80
2022/12/11 18:20:54;;;;;;;26.02;10.93;;;-2.90;99.90;;;;;;21041769;28;20100;-80
2022/12/11 18:30:54;;;;;;;30.48;12.40;;;-2.90;99.90;;;;;;21055625;28;20027;-79
2022/12/11 18:40:55;;;;;;;36.28;15.32;;;-2.90;99.90;;;;;;21097109;28;20125;-80
2022/12/11 18:50:56;;;;;;;32.08;14.45;;;-2.70;99.90;;;;;;21091330;28;20038;-77
2022/12/11 19:00:57;;;;;;;35.85;13.85;;;-2.50;99.90;;;;;;21055615;28;20096;-80
2022/12/11 19:10:58;;;;;;;27.38;10.68;;;-2.60;99.90;;;;;;21112620;28;20062;-79
2022/12/11 19:20:58;;;;;;;35.28;12.93;;;-3.00;99.90;;;;;;21097239;28;20443;-78
2022/12/11 19:30:59;;;;;;;32.25;13.00;;;-3.30;99.90;;;;;;21067697;28;20043;-77
2022/12/11 19:41:05;;;;;;;10.15;5.05;;;-3.20;99.90;;;;;;21087876;28;20442;-77
2022/12/11 19:51:14;;;;;;;17.80;7.43;;;-3.70;99.90;;;;;;21077384;28;20040;-77
2022/12/11 20:01:27;;;;;;;10.27;5.00;;;-4.00;99.90;;;;;;21077177;28;20036;-77
2022/12/11 20:11:28;;;;;;;8.07;3.97;;;-4.30;99.90;;;;;;21067279;28;20032;-76
2022/12/11 20:21:29;;;;;;;9.60;4.55;;;-4.50;99.90;;;;;;21083380;28;20604;-77
2022/12/11 20:31:30;;;;;;;8.93;4.43;;;-4.40;99.90;;;;;;21075090;28;20085;-77
2022/12/11 20:41:30;;;;;;;17.95;6.35;;;-4.70;99.90;;;;;;21076440;28;20036;-75
2022/12/11 20:51:31;;;;;;;13.20;4.47;;;-4.50;99.90;;;;;;21167302;22;20181;-79
2022/12/11 21:01:33;;;;;;;24.50;9.20;;;-4.50;99.90;;;;;;21180494;28;20067;-80
2022/12/11 21:11:34;;;;;;;12.73;4.85;;;-4.40;99.90;;;;;;21141641;28;20042;-78
2022/12/11 21:21:35;;;;;;;12.80;4.53;;;-4.40;99.90;;;;;;21182833;28;20496;-81
2022/12/11 21:31:36;;;;;;;14.77;6.65;;;-4.40;99.90;;;;;;21159370;28;20506;-79
2022/12/11 21:41:37;;;;;;;30.35;11.90;;;-4.50;99.90;;;;;;21178323;28;20111;-77
2022/12/11 21:51:40;;;;;;;26.92;11.10;;;-4.40;99.90;;;;;;21160539;28;20035;-80
2022/12/11 22:01:44;;;;;;;14.50;6.28;;;-4.40;99.90;;;;;;21181498;28;20068;-78
2022/12/11 22:11:46;;;;;;;25.48;11.60;;;-4.60;99.90;;;;;;21236694;27;20030;-79
2022/12/11 22:21:47;;;;;;;42.67;15.50;;;-4.70;99.90;;;;;;21249541;27;20027;-80
2022/12/11 22:31:48;;;;;;;42.25;14.02;;;-4.90;99.90;;;;;;21249928;27;20061;-80
2022/12/11 22:41:48;;;;;;;48.05;16.02;;;-4.80;99.90;;;;;;21234224;27;20079;-80
2022/12/11 22:51:49;;;;;;;45.97;16.85;;;-4.80;99.90;;;;;;21270664;27;20410;-78
2022/12/11 23:01:50;;;;;;;39.50;14.40;;;-4.80;99.90;;;;;;21246355;27;20079;-79
2022/12/11 23:11:51;;;;;;;36.53;14.43;;;-5.20;99.90;;;;;;21242089;27;20471;-80
2022/12/11 23:21:52;;;;;;;10.02;5.28;;;-5.10;99.90;;;;;;21171526;27;20027;-80
2022/12/11 23:31:53;;;;;;;6.75;3.20;;;-5.40;99.90;;;;;;21155144;28;20038;-80
2022/12/11 23:41:54;;;;;;;8.90;2.80;;;-5.40;99.90;;;;;;21152935;28;20031;-79
2022/12/11 23:51:55;;;;;;;7.70;3.10;;;-5.40;99.90;;;;;;21156847;28;20099;-81
